sensor_id;sensor_type;location;lat;lon;timestamp;P1;durP1;ratioP1;P2;durP2;ratioP2
9052;SDS011;4561;47.450;7.516;2023-04-03T00:02:26;4.80;;;4.40;;
9052;SDS011;4561;47.450;7.516;2023-04-03T00:05:47;5.63;;;5.13;;
9052;SDS011;4561;47.450;7.516;2023-04-03T00:09:08;5.50;;;5.10;;
9052;SDS011;4561;47.450;7.516;2023-04-03T00:12:31;5.17;;;4.67;;
9052;SDS011;4561;47.450;7.516;2023-04-03T00:15:51;5.47;;;5.07;;
9052;SDS011;4561;47.450;7.516;2023-04-03T00:19:12;6.30;;;5.70;;
9052;SDS011;4561;47.450;7.516;2023-04-03T00:22:34;6.40;;;5.90;;
9052;SDS011;4561;47.450;7.516;2023-04-03T00:25:55;6.87;;;6.27;;
9052;SDS011;4561;47.450;7.516;2023-04-03T00:29:15;7.13;;;6.50;;
9052;SDS011;4561;47.450;7.516;2023-04-03T00:32:36;7.47;;;6.67;;
9052;SDS011;4561;47.450;7.516;2023-04-03T00:35:58;8.30;;;7.40;;
9052;SDS011;4561;47.450;7.516;2023-04-03T00:39:19;10.03;;;7.57;;
9052;SDS011;4561;47.450;7.516;2023-04-03T00:42:42;17.03;;;9.80;;
9052;SDS011;4561;47.450;7.516;2023-04-03T00:46:04;11.03;;;8.60;;
9052;SDS011;4561;47.450;7.516;2023-04-03T00:49:24;10.90;;;9.13;;
9052;SDS011;4561;47.450;7.516;2023-04-03T00:52:47;19.40;;;9.77;;
9052;SDS011;4561;47.450;7.516;2023-04-03T00:56:10;9.27;;;8.47;;
9052;SDS011;4561;47.450;7.516;2023-04-03T00:59:34;40.77;;;11.40;;
9052;SDS011;4561;47.450;7.516;2023-04-03T01:02:56;15.70;;;10.47;;
9052;SDS011;4561;47.450;7.516;2023-04-03T01:06:17;60.37;;;11.10;;
9052;SDS011;4561;47.450;7.516;2023-04-03T01:09:41;10.17;;;9.27;;
9052;SDS011;4561;47.450;7.516;2023-04-03T01:13:02;10.63;;;9.63;;
9052;SDS011;4561;47.450;7.516;2023-04-03T01:16:37;9.07;;;8.30;;
9052;SDS011;4561;47.450;7.516;2023-04-03T01:23:53;6.40;;;5.90;;
9052;SDS011;4561;47.450;7.516;2023-04-03T01:27:20;7.60;;;6.90;;
9052;SDS011;4561;47.450;7.516;2023-04-03T01:34:08;6.20;;;5.70;;
9052;SDS011;4561;47.450;7.516;2023-04-03T01:37:32;6.70;;;5.40;;
9052;SDS011;4561;47.450;7.516;2023-04-03T01:40:52;5.80;;;5.30;;
9052;SDS011;4561;47.450;7.516;2023-04-03T01:44:13;4.07;;;3.67;;
9052;SDS011;4561;47.450;7.516;2023-04-03T01:47:35;4.37;;;4.07;;
9052;SDS011;4561;47.450;7.516;2023-04-03T01:50:56;4.00;;;3.70;;
9052;SDS011;4561;47.450;7.516;2023-04-03T01:54:19;3.80;;;3.50;;
9052;SDS011;4561;47.450;7.516;2023-04-03T01:57:39;3.73;;;3.43;;
9052;SDS011;4561;47.450;7.516;2023-04-03T02:00:59;2.97;;;2.70;;
9052;SDS011;4561;47.450;7.516;2023-04-03T02:04:20;2.60;;;2.40;;
9052;SDS011;4561;47.450;7.516;2023-04-03T02:07:40;3.00;;;2.80;;
9052;SDS011;4561;47.450;7.516;2023-04-03T02:11:03;2.90;;;2.70;;
9052;SDS011;4561;47.450;7.516;2023-04-03T02:14:24;1.90;;;1.80;;
9052;SDS011;4561;47.450;7.516;2023-04-03T02:17:47;1.80;;;1.70;;
9052;SDS011;4561;47.450;7.516;2023-04-03T02:21:07;2.60;;;2.17;;
9052;SDS011;4561;47.450;7.516;2023-04-03T02:24:28;1.87;;;1.77;;
9052;SDS011;4561;47.450;7.516;2023-04-03T02:27:48;2.10;;;2.00;;
9052;SDS011;4561;47.450;7.516;2023-04-03T02:31:09;2.60;;;2.40;;
9052;SDS011;4561;47.450;7.516;2023-04-03T02:34:30;2.33;;;2.13;;
9052;SDS011;4561;47.450;7.516;2023-04-03T02:37:50;2.70;;;2.30;;
9052;SDS011;4561;47.450;7.516;2023-04-03T02:41:11;2.50;;;2.30;;
9052;SDS011;4561;47.450;7.516;2023-04-03T02:44:32;2.80;;;2.60;;
9052;SDS011;4561;47.450;7.516;2023-04-03T02:47:55;3.53;;;3.00;;
9052;SDS011;4561;47.450;7.516;2023-04-03T02:51:15;2.97;;;2.77;;
9052;SDS011;4561;47.450;7.516;2023-04-03T02:54:36;2.23;;;2.13;;
9052;SDS011;4561;47.450;7.516;2023-04-03T02:57:56;2.40;;;2.30;;
9052;SDS011;4561;47.450;7.516;2023-04-03T03:01:17;1.87;;;1.77;;
9052;SDS011;4561;47.450;7.516;2023-04-03T03:04:37;2.13;;;2.03;;
9052;SDS011;4561;47.450;7.516;2023-04-03T03:07:57;2.37;;;2.27;;
9052;SDS011;4561;47.450;7.516;2023-04-03T03:11:18;1.90;;;1.80;;
9052;SDS011;4561;47.450;7.516;2023-04-03T03:14:41;2.10;;;2.00;;
9052;SDS011;4561;47.450;7.516;2023-04-03T03:18:05;2.03;;;1.93;;
9052;SDS011;4561;47.450;7.516;2023-04-03T03:21:25;2.90;;;2.70;;
9052;SDS011;4561;47.450;7.516;2023-04-03T03:24:46;3.53;;;2.73;;
9052;SDS011;4561;47.450;7.516;2023-04-03T03:28:07;2.60;;;2.40;;
9052;SDS011;4561;47.450;7.516;2023-04-03T03:31:27;2.90;;;2.70;;
9052;SDS011;4561;47.450;7.516;2023-04-03T03:34:48;2.60;;;2.40;;
9052;SDS011;4561;47.450;7.516;2023-04-03T03:38:08;2.47;;;2.27;;
9052;SDS011;4561;47.450;7.516;2023-04-03T03:41:28;2.67;;;2.47;;
9052;SDS011;4561;47.450;7.516;2023-04-03T03:44:49;2.17;;;2.07;;
9052;SDS011;4561;47.450;7.516;2023-04-03T03:48:09;2.70;;;2.50;;
9052;SDS011;4561;47.450;7.516;2023-04-03T03:51:32;2.77;;;2.57;;
9052;SDS011;4561;47.450;7.516;2023-04-03T03:54:52;2.73;;;2.43;;
9052;SDS011;4561;47.450;7.516;2023-04-03T03:58:15;2.67;;;2.47;;
9052;SDS011;4561;47.450;7.516;2023-04-03T04:01:35;2.70;;;2.50;;
9052;SDS011;4561;47.450;7.516;2023-04-03T04:04:56;2.83;;;2.63;;
9052;SDS011;4561;47.450;7.516;2023-04-03T04:08:16;3.07;;;2.87;;
9052;SDS011;4561;47.450;7.516;2023-04-03T04:11:37;3.40;;;3.10;;
9052;SDS011;4561;47.450;7.516;2023-04-03T04:14:59;4.23;;;3.83;;
9052;SDS011;4561;47.450;7.516;2023-04-03T04:18:20;4.00;;;3.70;;
9052;SDS011;4561;47.450;7.516;2023-04-03T04:21:41;4.40;;;4.00;;
9052;SDS011;4561;47.450;7.516;2023-04-03T04:25:01;4.90;;;4.40;;
9052;SDS011;4561;47.450;7.516;2023-04-03T04:28:24;5.80;;;4.87;;
9052;SDS011;4561;47.450;7.516;2023-04-03T04:31:45;5.40;;;4.97;;
9052;SDS011;4561;47.450;7.516;2023-04-03T04:35:05;6.10;;;5.50;;
9052;SDS011;4561;47.450;7.516;2023-04-03T04:38:26;5.63;;;5.23;;
9052;SDS011;4561;47.450;7.516;2023-04-03T04:41:46;5.43;;;5.03;;
9052;SDS011;4561;47.450;7.516;2023-04-03T04:45:06;5.80;;;5.27;;
9052;SDS011;4561;47.450;7.516;2023-04-03T04:48:27;5.40;;;5.00;;
9052;SDS011;4561;47.450;7.516;2023-04-03T04:51:48;5.10;;;4.70;;
9052;SDS011;4561;47.450;7.516;2023-04-03T04:55:08;5.17;;;4.77;;
9052;SDS011;4561;47.450;7.516;2023-04-03T04:58:28;5.50;;;5.00;;
9052;SDS011;4561;47.450;7.516;2023-04-03T05:01:52;7.37;;;5.90;;
9052;SDS011;4561;47.450;7.516;2023-04-03T05:05:12;6.10;;;5.60;;
9052;SDS011;4561;47.450;7.516;2023-04-03T05:08:32;6.80;;;6.10;;
9052;SDS011;4561;47.450;7.516;2023-04-03T05:11:53;5.83;;;5.27;;
9052;SDS011;4561;47.450;7.516;2023-04-03T05:15:13;5.80;;;5.30;;
9052;SDS011;4561;47.450;7.516;2023-04-03T05:18:34;6.30;;;5.70;;
9052;SDS011;4561;47.450;7.516;2023-04-03T05:21:57;7.03;;;6.40;;
9052;SDS011;4561;47.450;7.516;2023-04-03T05:25:18;6.17;;;5.67;;
9052;SDS011;4561;47.450;7.516;2023-04-03T05:28:40;6.70;;;6.00;;
9052;SDS011;4561;47.450;7.516;2023-04-03T05:32:00;7.00;;;6.40;;
9052;SDS011;4561;47.450;7.516;2023-04-03T05:35:21;7.10;;;6.40;;
9052;SDS011;4561;47.450;7.516;2023-04-03T05:38:41;6.60;;;5.90;;
9052;SDS011;4561;47.450;7.516;2023-04-03T05:42:01;6.80;;;6.20;;
9052;SDS011;4561;47.450;7.516;2023-04-03T05:45:24;7.53;;;6.23;;
9052;SDS011;4561;47.450;7.516;2023-04-03T05:48:44;7.00;;;5.83;;
9052;SDS011;4561;47.450;7.516;2023-04-03T05:52:05;7.13;;;6.43;;
9052;SDS011;4561;47.450;7.516;2023-04-03T05:55:25;8.47;;;7.73;;
9052;SDS011;4561;47.450;7.516;2023-04-03T05:58:50;8.53;;;7.73;;
9052;SDS011;4561;47.450;7.516;2023-04-03T06:02:11;9.97;;;8.90;;
9052;SDS011;4561;47.450;7.516;2023-04-03T06:05:33;9.00;;;8.20;;
9052;SDS011;4561;47.450;7.516;2023-04-03T06:08:55;8.67;;;7.87;;
9052;SDS011;4561;47.450;7.516;2023-04-03T06:12:15;7.83;;;7.17;;
9052;SDS011;4561;47.450;7.516;2023-04-03T06:15:36;8.67;;;7.60;;
9052;SDS011;4561;47.450;7.516;2023-04-03T06:18:58;7.50;;;6.80;;
9052;SDS011;4561;47.450;7.516;2023-04-03T06:22:20;9.60;;;8.70;;
9052;SDS011;4561;47.450;7.516;2023-04-03T06:25:41;7.87;;;7.17;;
9052;SDS011;4561;47.450;7.516;2023-04-03T06:29:02;9.27;;;7.57;;
9052;SDS011;4561;47.450;7.516;2023-04-03T06:32:24;7.57;;;6.60;;
9052;SDS011;4561;47.450;7.516;2023-04-03T06:35:47;7.53;;;6.93;;
9052;SDS011;4561;47.450;7.516;2023-04-03T06:39:08;8.30;;;7.60;;
9052;SDS011;4561;47.450;7.516;2023-04-03T06:42:32;7.83;;;7.13;;
9052;SDS011;4561;47.450;7.516;2023-04-03T06:45:53;7.93;;;7.13;;
9052;SDS011;4561;47.450;7.516;2023-04-03T06:49:13;7.53;;;6.67;;
9052;SDS011;4561;47.450;7.516;2023-04-03T06:52:34;6.70;;;6.10;;
9052;SDS011;4561;47.450;7.516;2023-04-03T06:55:55;6.50;;;6.00;;
9052;SDS011;4561;47.450;7.516;2023-04-03T06:59:16;7.60;;;7.00;;
9052;SDS011;4561;47.450;7.516;2023-04-03T07:02:37;6.53;;;5.93;;
9052;SDS011;4561;47.450;7.516;2023-04-03T07:06:00;6.17;;;5.67;;
9052;SDS011;4561;47.450;7.516;2023-04-03T07:09:20;6.10;;;5.60;;
9052;SDS011;4561;47.450;7.516;2023-04-03T07:12:41;6.43;;;5.90;;
9052;SDS011;4561;47.450;7.516;2023-04-03T07:16:02;6.73;;;6.13;;
9052;SDS011;4561;47.450;7.516;2023-04-03T07:19:23;6.27;;;5.77;;
9052;SDS011;4561;47.450;7.516;2023-04-03T07:22:47;6.90;;;6.33;;
9052;SDS011;4561;47.450;7.516;2023-04-03T07:26:07;7.00;;;6.40;;
9052;SDS011;4561;47.450;7.516;2023-04-03T07:29:30;6.83;;;6.23;;
9052;SDS011;4561;47.450;7.516;2023-04-03T07:32:50;5.80;;;5.30;;
9052;SDS011;4561;47.450;7.516;2023-04-03T07:36:14;6.47;;;5.63;;
9052;SDS011;4561;47.450;7.516;2023-04-03T07:39:39;6.40;;;5.90;;
9052;SDS011;4561;47.450;7.516;2023-04-03T07:42:59;6.73;;;5.97;;
9052;SDS011;4561;47.450;7.516;2023-04-03T07:46:19;5.50;;;5.00;;
9052;SDS011;4561;47.450;7.516;2023-04-03T07:49:40;5.73;;;5.23;;
9052;SDS011;4561;47.450;7.516;2023-04-03T07:53:03;5.10;;;4.70;;
9052;SDS011;4561;47.450;7.516;2023-04-03T07:56:24;5.40;;;4.90;;
9052;SDS011;4561;47.450;7.516;2023-04-03T07:59:45;5.93;;;5.43;;
9052;SDS011;4561;47.450;7.516;2023-04-03T08:03:09;5.97;;;5.47;;
9052;SDS011;4561;47.450;7.516;2023-04-03T08:06:31;6.60;;;5.97;;
9052;SDS011;4561;47.450;7.516;2023-04-03T08:09:56;6.93;;;6.33;;
9052;SDS011;4561;47.450;7.516;2023-04-03T08:13:17;6.80;;;6.20;;
9052;SDS011;4561;47.450;7.516;2023-04-03T08:16:38;6.33;;;5.73;;
9052;SDS011;4561;47.450;7.516;2023-04-03T08:19:58;6.33;;;5.83;;
9052;SDS011;4561;47.450;7.516;2023-04-03T08:23:22;6.40;;;5.80;;
9052;SDS011;4561;47.450;7.516;2023-04-03T08:26:42;5.80;;;5.30;;
9052;SDS011;4561;47.450;7.516;2023-04-03T08:30:03;6.33;;;5.73;;
9052;SDS011;4561;47.450;7.516;2023-04-03T08:33:24;5.87;;;5.27;;
9052;SDS011;4561;47.450;7.516;2023-04-03T08:36:44;6.20;;;5.60;;
9052;SDS011;4561;47.450;7.516;2023-04-03T08:40:06;6.53;;;5.53;;
9052;SDS011;4561;47.450;7.516;2023-04-03T08:50:49;5.23;;;4.80;;
9052;SDS011;4561;47.450;7.516;2023-04-03T08:54:17;6.07;;;4.60;;
9052;SDS011;4561;47.450;7.516;2023-04-03T08:57:44;4.63;;;4.27;;
9052;SDS011;4561;47.450;7.516;2023-04-03T09:01:05;5.10;;;4.70;;
9052;SDS011;4561;47.450;7.516;2023-04-03T09:04:53;4.30;;;3.90;;
9052;SDS011;4561;47.450;7.516;2023-04-03T09:08:17;4.93;;;4.43;;
9052;SDS011;4561;47.450;7.516;2023-04-03T09:12:20;5.07;;;4.57;;
9052;SDS011;4561;47.450;7.516;2023-04-03T09:15:45;4.70;;;4.30;;
9052;SDS011;4561;47.450;7.516;2023-04-03T09:22:52;5.00;;;4.50;;
9052;SDS011;4561;47.450;7.516;2023-04-03T09:26:16;5.50;;;3.77;;
9052;SDS011;4561;47.450;7.516;2023-04-03T09:29:40;4.47;;;4.10;;
9052;SDS011;4561;47.450;7.516;2023-04-03T09:33:06;3.93;;;3.63;;
9052;SDS011;4561;47.450;7.516;2023-04-03T09:36:43;4.07;;;3.57;;
9052;SDS011;4561;47.450;7.516;2023-04-03T09:40:05;4.63;;;4.23;;
9052;SDS011;4561;47.450;7.516;2023-04-03T09:43:33;4.00;;;3.43;;
9052;SDS011;4561;47.450;7.516;2023-04-03T09:46:57;4.27;;;3.87;;
9052;SDS011;4561;47.450;7.516;2023-04-03T09:50:21;3.80;;;3.50;;
9052;SDS011;4561;47.450;7.516;2023-04-03T09:53:42;3.97;;;3.67;;
9052;SDS011;4561;47.450;7.516;2023-04-03T09:57:06;6.07;;;3.47;;
9052;SDS011;4561;47.450;7.516;2023-04-03T10:00:30;5.87;;;3.97;;
9052;SDS011;4561;47.450;7.516;2023-04-03T10:04:07;4.30;;;3.90;;
9052;SDS011;4561;47.450;7.516;2023-04-03T10:11:05;4.20;;;3.80;;
9052;SDS011;4561;47.450;7.516;2023-04-03T10:14:26;5.23;;;3.90;;
9052;SDS011;4561;47.450;7.516;2023-04-03T10:17:54;3.47;;;3.17;;
9052;SDS011;4561;47.450;7.516;2023-04-03T10:25:03;3.50;;;3.20;;
9052;SDS011;4561;47.450;7.516;2023-04-03T10:43:20;3.27;;;2.83;;
9052;SDS011;4561;47.450;7.516;2023-04-03T10:46:47;2.53;;;2.33;;
9052;SDS011;4561;47.450;7.516;2023-04-03T10:53:38;3.13;;;2.37;;
9052;SDS011;4561;47.450;7.516;2023-04-03T10:57:06;2.33;;;2.13;;
9052;SDS011;4561;47.450;7.516;2023-04-03T11:00:33;2.37;;;2.20;;
9052;SDS011;4561;47.450;7.516;2023-04-03T11:03:57;2.63;;;2.37;;
9052;SDS011;4561;47.450;7.516;2023-04-03T11:07:24;3.10;;;2.90;;
9052;SDS011;4561;47.450;7.516;2023-04-03T11:10:48;2.57;;;2.37;;
9052;SDS011;4561;47.450;7.516;2023-04-03T11:14:24;2.70;;;2.50;;
9052;SDS011;4561;47.450;7.516;2023-04-03T11:18:49;2.80;;;2.50;;
9052;SDS011;4561;47.450;7.516;2023-04-03T11:21:43;3.27;;;2.50;;
9052;SDS011;4561;47.450;7.516;2023-04-03T11:28:30;2.63;;;2.43;;
9052;SDS011;4561;47.450;7.516;2023-04-03T11:31:58;2.60;;;2.40;;
9052;SDS011;4561;47.450;7.516;2023-04-03T11:35:29;3.27;;;2.97;;
9052;SDS011;4561;47.450;7.516;2023-04-03T11:38:51;2.53;;;2.33;;
9052;SDS011;4561;47.450;7.516;2023-04-03T11:45:50;2.30;;;2.10;;
9052;SDS011;4561;47.450;7.516;2023-04-03T11:53:39;3.63;;;2.10;;
9052;SDS011;4561;47.450;7.516;2023-04-03T11:57:09;2.13;;;1.93;;
9052;SDS011;4561;47.450;7.516;2023-04-03T12:01:01;2.53;;;2.20;;
9052;SDS011;4561;47.450;7.516;2023-04-03T12:04:24;1.90;;;1.80;;
9052;SDS011;4561;47.450;7.516;2023-04-03T12:08:14;2.00;;;1.70;;
9052;SDS011;4561;47.450;7.516;2023-04-03T12:11:37;2.40;;;2.20;;
9052;SDS011;4561;47.450;7.516;2023-04-03T12:18:44;2.40;;;2.20;;
9052;SDS011;4561;47.450;7.516;2023-04-03T12:22:05;2.17;;;1.97;;
9052;SDS011;4561;47.450;7.516;2023-04-03T12:25:49;2.47;;;1.97;;
9052;SDS011;4561;47.450;7.516;2023-04-03T12:29:58;2.00;;;1.80;;
9052;SDS011;4561;47.450;7.516;2023-04-03T12:36:55;2.60;;;2.20;;
9052;SDS011;4561;47.450;7.516;2023-04-03T12:48:24;1.70;;;1.60;;
9052;SDS011;4561;47.450;7.516;2023-04-03T12:51:46;2.07;;;1.90;;
9052;SDS011;4561;47.450;7.516;2023-04-03T12:55:08;1.70;;;1.50;;
9052;SDS011;4561;47.450;7.516;2023-04-03T12:58:35;2.53;;;2.10;;
9052;SDS011;4561;47.450;7.516;2023-04-03T13:01:56;2.00;;;1.70;;
9052;SDS011;4561;47.450;7.516;2023-04-03T13:05:21;2.23;;;2.00;;
9052;SDS011;4561;47.450;7.516;2023-04-03T13:08:49;2.33;;;1.90;;
9052;SDS011;4561;47.450;7.516;2023-04-03T13:12:13;1.67;;;1.57;;
9052;SDS011;4561;47.450;7.516;2023-04-03T13:15:43;2.53;;;2.10;;
9052;SDS011;4561;47.450;7.516;2023-04-03T13:19:15;3.33;;;2.13;;
9052;SDS011;4561;47.450;7.516;2023-04-03T13:22:48;2.40;;;2.20;;
9052;SDS011;4561;47.450;7.516;2023-04-03T13:26:09;2.30;;;2.10;;
9052;SDS011;4561;47.450;7.516;2023-04-03T13:29:36;2.17;;;1.90;;
9052;SDS011;4561;47.450;7.516;2023-04-03T13:33:00;2.07;;;1.90;;
9052;SDS011;4561;47.450;7.516;2023-04-03T13:36:24;2.10;;;2.00;;
9052;SDS011;4561;47.450;7.516;2023-04-03T13:43:40;2.13;;;1.93;;
9052;SDS011;4561;47.450;7.516;2023-04-03T13:50:23;2.00;;;1.90;;
9052;SDS011;4561;47.450;7.516;2023-04-03T13:53:55;1.70;;;1.60;;
9052;SDS011;4561;47.450;7.516;2023-04-03T13:57:17;2.20;;;2.00;;
9052;SDS011;4561;47.450;7.516;2023-04-03T14:00:48;2.30;;;2.03;;
9052;SDS011;4561;47.450;7.516;2023-04-03T14:04:32;2.30;;;2.10;;
9052;SDS011;4561;47.450;7.516;2023-04-03T14:07:53;1.97;;;1.87;;
9052;SDS011;4561;47.450;7.516;2023-04-03T14:11:16;2.00;;;1.80;;
9052;SDS011;4561;47.450;7.516;2023-04-03T14:14:38;2.30;;;2.10;;
9052;SDS011;4561;47.450;7.516;2023-04-03T14:18:00;3.47;;;2.13;;
9052;SDS011;4561;47.450;7.516;2023-04-03T14:21:26;2.43;;;1.97;;
9052;SDS011;4561;47.450;7.516;2023-04-03T14:24:47;3.40;;;2.30;;
9052;SDS011;4561;47.450;7.516;2023-04-03T14:28:17;2.67;;;2.47;;
9052;SDS011;4561;47.450;7.516;2023-04-03T14:31:39;2.67;;;2.47;;
9052;SDS011;4561;47.450;7.516;2023-04-03T14:35:01;2.70;;;2.40;;
9052;SDS011;4561;47.450;7.516;2023-04-03T14:41:48;4.27;;;2.47;;
9052;SDS011;4561;47.450;7.516;2023-04-03T14:45:10;3.87;;;2.33;;
9052;SDS011;4561;47.450;7.516;2023-04-03T14:48:34;2.60;;;2.40;;
9052;SDS011;4561;47.450;7.516;2023-04-03T14:51:55;2.83;;;2.53;;
9052;SDS011;4561;47.450;7.516;2023-04-03T14:55:20;2.10;;;2.00;;
9052;SDS011;4561;47.450;7.516;2023-04-03T14:58:42;2.53;;;2.30;;
9052;SDS011;4561;47.450;7.516;2023-04-03T15:02:08;2.60;;;2.40;;
9052;SDS011;4561;47.450;7.516;2023-04-03T15:05:45;2.10;;;1.90;;
9052;SDS011;4561;47.450;7.516;2023-04-03T15:09:11;2.10;;;2.00;;
9052;SDS011;4561;47.450;7.516;2023-04-03T15:12:42;2.13;;;2.03;;
9052;SDS011;4561;47.450;7.516;2023-04-03T15:16:02;5.30;;;2.90;;
9052;SDS011;4561;47.450;7.516;2023-04-03T15:19:26;6.07;;;4.30;;
9052;SDS011;4561;47.450;7.516;2023-04-03T15:22:46;4.37;;;3.37;;
9052;SDS011;4561;47.450;7.516;2023-04-03T15:26:06;3.93;;;3.00;;
9052;SDS011;4561;47.450;7.516;2023-04-03T15:29:27;2.80;;;2.60;;
9052;SDS011;4561;47.450;7.516;2023-04-03T15:32:49;2.03;;;1.83;;
9052;SDS011;4561;47.450;7.516;2023-04-03T15:36:10;2.43;;;2.20;;
9052;SDS011;4561;47.450;7.516;2023-04-03T15:39:31;3.27;;;2.97;;
9052;SDS011;4561;47.450;7.516;2023-04-03T15:42:51;3.30;;;2.60;;
9052;SDS011;4561;47.450;7.516;2023-04-03T15:46:11;2.50;;;2.30;;
9052;SDS011;4561;47.450;7.516;2023-04-03T15:49:32;2.70;;;2.50;;
9052;SDS011;4561;47.450;7.516;2023-04-03T15:52:54;3.67;;;2.90;;
9052;SDS011;4561;47.450;7.516;2023-04-03T15:56:15;2.30;;;2.10;;
9052;SDS011;4561;47.450;7.516;2023-04-03T15:59:35;2.63;;;2.20;;
9052;SDS011;4561;47.450;7.516;2023-04-03T16:02:58;2.83;;;2.40;;
9052;SDS011;4561;47.450;7.516;2023-04-03T16:06:23;3.50;;;2.50;;
9052;SDS011;4561;47.450;7.516;2023-04-03T16:09:47;2.07;;;1.97;;
9052;SDS011;4561;47.450;7.516;2023-04-03T16:13:07;2.10;;;1.80;;
9052;SDS011;4561;47.450;7.516;2023-04-03T16:16:27;3.23;;;2.93;;
9052;SDS011;4561;47.450;7.516;2023-04-03T16:19:48;3.87;;;2.33;;
9052;SDS011;4561;47.450;7.516;2023-04-03T16:23:11;2.33;;;2.10;;
9052;SDS011;4561;47.450;7.516;2023-04-03T16:26:32;3.43;;;2.20;;
9052;SDS011;4561;47.450;7.516;2023-04-03T16:29:56;1.73;;;1.63;;
9052;SDS011;4561;47.450;7.516;2023-04-03T16:33:17;2.33;;;1.47;;
9052;SDS011;4561;47.450;7.516;2023-04-03T16:36:37;2.27;;;1.87;;
9052;SDS011;4561;47.450;7.516;2023-04-03T16:39:58;2.00;;;1.73;;
9052;SDS011;4561;47.450;7.516;2023-04-03T16:43:18;2.10;;;1.90;;
9052;SDS011;4561;47.450;7.516;2023-04-03T16:46:38;2.07;;;1.87;;
9052;SDS011;4561;47.450;7.516;2023-04-03T16:49:59;2.40;;;2.20;;
9052;SDS011;4561;47.450;7.516;2023-04-03T16:53:22;2.67;;;2.10;;
9052;SDS011;4561;47.450;7.516;2023-04-03T16:56:43;2.00;;;1.90;;
9052;SDS011;4561;47.450;7.516;2023-04-03T17:00:04;3.03;;;1.93;;
9052;SDS011;4561;47.450;7.516;2023-04-03T17:03:28;2.20;;;1.50;;
9052;SDS011;4561;47.450;7.516;2023-04-03T17:06:48;2.37;;;1.90;;
9052;SDS011;4561;47.450;7.516;2023-04-03T17:10:09;3.77;;;2.00;;
9052;SDS011;4561;47.450;7.516;2023-04-03T17:13:33;2.20;;;2.00;;
9052;SDS011;4561;47.450;7.516;2023-04-03T17:16:53;2.07;;;1.87;;
9052;SDS011;4561;47.450;7.516;2023-04-03T17:20:14;2.07;;;1.87;;
9052;SDS011;4561;47.450;7.516;2023-04-03T17:23:35;2.37;;;1.87;;
9052;SDS011;4561;47.450;7.516;2023-04-03T17:26:56;1.90;;;1.80;;
9052;SDS011;4561;47.450;7.516;2023-04-03T17:30:16;3.13;;;1.80;;
9052;SDS011;4561;47.450;7.516;2023-04-03T17:33:37;2.10;;;1.90;;
9052;SDS011;4561;47.450;7.516;2023-04-03T17:36:57;2.67;;;2.13;;
9052;SDS011;4561;47.450;7.516;2023-04-03T17:40:18;2.63;;;2.17;;
9052;SDS011;4561;47.450;7.516;2023-04-03T17:43:38;2.53;;;2.03;;
9052;SDS011;4561;47.450;7.516;2023-04-03T17:46:59;2.30;;;2.10;;
9052;SDS011;4561;47.450;7.516;2023-04-03T17:50:19;2.30;;;2.10;;
9052;SDS011;4561;47.450;7.516;2023-04-03T17:53:43;2.20;;;2.00;;
9052;SDS011;4561;47.450;7.516;2023-04-03T17:57:05;2.20;;;2.00;;
9052;SDS011;4561;47.450;7.516;2023-04-03T18:00:28;1.90;;;1.80;;
9052;SDS011;4561;47.450;7.516;2023-04-03T18:03:50;2.20;;;1.93;;
9052;SDS011;4561;47.450;7.516;2023-04-03T18:07:14;4.40;;;2.17;;
9052;SDS011;4561;47.450;7.516;2023-04-03T18:10:35;2.00;;;1.90;;
9052;SDS011;4561;47.450;7.516;2023-04-03T18:13:56;2.20;;;1.97;;
9052;SDS011;4561;47.450;7.516;2023-04-03T18:17:17;2.47;;;2.20;;
9052;SDS011;4561;47.450;7.516;2023-04-03T18:20:38;2.17;;;1.97;;
9052;SDS011;4561;47.450;7.516;2023-04-03T18:23:58;2.90;;;2.10;;
9052;SDS011;4561;47.450;7.516;2023-04-03T18:27:20;4.03;;;2.10;;
9052;SDS011;4561;47.450;7.516;2023-04-03T18:30:41;2.47;;;2.13;;
9052;SDS011;4561;47.450;7.516;2023-04-03T18:34:02;2.50;;;2.00;;
9052;SDS011;4561;47.450;7.516;2023-04-03T18:37:23;2.23;;;1.80;;
9052;SDS011;4561;47.450;7.516;2023-04-03T18:40:44;4.20;;;2.00;;
9052;SDS011;4561;47.450;7.516;2023-04-03T18:44:09;2.57;;;2.37;;
9052;SDS011;4561;47.450;7.516;2023-04-03T18:47:32;3.10;;;2.37;;
9052;SDS011;4561;47.450;7.516;2023-04-03T18:50:53;3.97;;;2.20;;
9052;SDS011;4561;47.450;7.516;2023-04-03T18:54:14;2.87;;;2.40;;
9052;SDS011;4561;47.450;7.516;2023-04-03T18:57:35;2.37;;;2.17;;
9052;SDS011;4561;47.450;7.516;2023-04-03T19:00:57;4.30;;;2.77;;
9052;SDS011;4561;47.450;7.516;2023-04-03T19:04:18;2.30;;;2.10;;
9052;SDS011;4561;47.450;7.516;2023-04-03T19:07:39;2.73;;;2.43;;
9052;SDS011;4561;47.450;7.516;2023-04-03T19:11:05;2.50;;;2.17;;
9052;SDS011;4561;47.450;7.516;2023-04-03T19:14:28;3.03;;;2.33;;
9052;SDS011;4561;47.450;7.516;2023-04-03T19:17:50;2.53;;;2.33;;
9052;SDS011;4561;47.450;7.516;2023-04-03T19:21:10;3.87;;;2.43;;
9052;SDS011;4561;47.450;7.516;2023-04-03T19:24:31;3.50;;;2.20;;
9052;SDS011;4561;47.450;7.516;2023-04-03T19:27:51;4.70;;;2.20;;
9052;SDS011;4561;47.450;7.516;2023-04-03T19:31:16;2.73;;;2.20;;
9052;SDS011;4561;47.450;7.516;2023-04-03T19:34:37;3.47;;;2.40;;
9052;SDS011;4561;47.450;7.516;2023-04-03T19:37:58;2.50;;;2.30;;
9052;SDS011;4561;47.450;7.516;2023-04-03T19:41:19;5.60;;;3.60;;
9052;SDS011;4561;47.450;7.516;2023-04-03T19:44:43;5.13;;;3.30;;
9052;SDS011;4561;47.450;7.516;2023-04-03T19:48:04;2.53;;;2.30;;
9052;SDS011;4561;47.450;7.516;2023-04-03T19:51:24;3.30;;;3.00;;
9052;SDS011;4561;47.450;7.516;2023-04-03T19:54:45;4.47;;;3.00;;
9052;SDS011;4561;47.450;7.516;2023-04-03T19:58:05;2.70;;;2.20;;
9052;SDS011;4561;47.450;7.516;2023-04-03T20:01:26;3.77;;;2.60;;
9052;SDS011;4561;47.450;7.516;2023-04-03T20:04:51;3.13;;;2.83;;
9052;SDS011;4561;47.450;7.516;2023-04-03T20:08:11;5.63;;;3.10;;
9052;SDS011;4561;47.450;7.516;2023-04-03T20:11:35;4.67;;;3.47;;
9052;SDS011;4561;47.450;7.516;2023-04-03T20:14:56;2.60;;;2.40;;
9052;SDS011;4561;47.450;7.516;2023-04-03T20:18:18;3.80;;;2.30;;
9052;SDS011;4561;47.450;7.516;2023-04-03T20:21:39;3.13;;;2.20;;
9052;SDS011;4561;47.450;7.516;2023-04-03T20:25:03;2.63;;;2.07;;
9052;SDS011;4561;47.450;7.516;2023-04-03T20:28:28;3.27;;;2.30;;
9052;SDS011;4561;47.450;7.516;2023-04-03T20:31:48;2.60;;;2.40;;
9052;SDS011;4561;47.450;7.516;2023-04-03T20:35:15;2.57;;;2.23;;
9052;SDS011;4561;47.450;7.516;2023-04-03T20:38:37;2.53;;;2.27;;
9052;SDS011;4561;47.450;7.516;2023-04-03T20:41:58;4.03;;;2.40;;
9052;SDS011;4561;47.450;7.516;2023-04-03T20:45:18;3.00;;;2.50;;
9052;SDS011;4561;47.450;7.516;2023-04-03T20:48:40;2.50;;;2.17;;
9052;SDS011;4561;47.450;7.516;2023-04-03T20:52:00;3.70;;;2.60;;
9052;SDS011;4561;47.450;7.516;2023-04-03T20:55:21;2.93;;;2.50;;
9052;SDS011;4561;47.450;7.516;2023-04-03T20:58:41;2.37;;;2.17;;
9052;SDS011;4561;47.450;7.516;2023-04-03T21:02:02;2.30;;;2.10;;
9052;SDS011;4561;47.450;7.516;2023-04-03T21:05:26;3.10;;;2.17;;
9052;SDS011;4561;47.450;7.516;2023-04-03T21:20:06;2.77;;;2.53;;
9052;SDS011;4561;47.450;7.516;2023-04-03T21:23:29;3.90;;;2.70;;
9052;SDS011;4561;47.450;7.516;2023-04-03T21:26:56;3.20;;;2.90;;
9052;SDS011;4561;47.450;7.516;2023-04-03T21:30:16;3.00;;;2.60;;
9052;SDS011;4561;47.450;7.516;2023-04-03T21:33:39;3.80;;;3.17;;
9052;SDS011;4561;47.450;7.516;2023-04-03T21:37:03;3.47;;;2.93;;
9052;SDS011;4561;47.450;7.516;2023-04-03T21:40:25;7.10;;;3.03;;
9052;SDS011;4561;47.450;7.516;2023-04-03T21:43:48;3.50;;;3.17;;
9052;SDS011;4561;47.450;7.516;2023-04-03T21:47:08;4.13;;;2.80;;
9052;SDS011;4561;47.450;7.516;2023-04-03T21:50:30;4.30;;;2.90;;
9052;SDS011;4561;47.450;7.516;2023-04-03T21:53:51;2.70;;;2.50;;
9052;SDS011;4561;47.450;7.516;2023-04-03T21:57:12;2.90;;;2.30;;
9052;SDS011;4561;47.450;7.516;2023-04-03T22:00:33;3.40;;;2.67;;
9052;SDS011;4561;47.450;7.516;2023-04-03T22:03:58;3.80;;;2.70;;
9052;SDS011;4561;47.450;7.516;2023-04-03T22:07:18;4.20;;;3.10;;
9052;SDS011;4561;47.450;7.516;2023-04-03T22:10:42;3.13;;;2.83;;
9052;SDS011;4561;47.450;7.516;2023-04-03T22:14:02;3.40;;;2.80;;
9052;SDS011;4561;47.450;7.516;2023-04-03T22:17:23;3.10;;;2.30;;
9052;SDS011;4561;47.450;7.516;2023-04-03T22:20:43;3.27;;;2.60;;
9052;SDS011;4561;47.450;7.516;2023-04-03T22:24:04;3.93;;;2.40;;
9052;SDS011;4561;47.450;7.516;2023-04-03T22:27:24;3.80;;;2.50;;
9052;SDS011;4561;47.450;7.516;2023-04-03T22:30:44;2.57;;;2.20;;
9052;SDS011;4561;47.450;7.516;2023-04-03T22:34:05;3.83;;;2.47;;